createdAt,value
2023-03-20T00:01:24.093Z,30.13
2023-03-20T00:03:51.391Z,28.15
2023-03-20T00:06:23.469Z,33.92
2023-03-20T00:08:52.551Z,30.58
2023-03-20T00:11:34.702Z,32.13
2023-03-20T00:14:04.053Z,32.53
2023-03-20T00:16:34.343Z,29.65
2023-03-20T00:19:00.965Z,30.05
2023-03-20T00:21:27.458Z,29.52
2023-03-20T00:23:55.394Z,30.40
2023-03-20T00:26:26.818Z,32.17
2023-03-20T00:31:31.986Z,29.30
2023-03-20T00:34:02.042Z,29.35
2023-03-20T00:36:28.542Z,28.33
2023-03-20T00:38:56.334Z,30.90
2023-03-20T00:41:31.180Z,29.77
2023-03-20T00:44:02.334Z,32.53
2023-03-20T00:46:35.398Z,30.17
2023-03-20T00:49:01.900Z,27.58
2023-03-20T00:51:28.304Z,28.05
2023-03-20T00:53:54.778Z,30.02
2023-03-20T00:56:35.188Z,27.08
2023-03-20T00:59:03.335Z,29.63
2023-03-20T01:01:31.917Z,29.70
2023-03-20T01:03:59.892Z,31.25
2023-03-20T01:06:26.482Z,30.70
2023-03-20T01:08:52.882Z,28.55
2023-03-20T01:11:23.429Z,32.28
2023-03-20T01:13:52.188Z,31.70
2023-03-20T01:16:23.991Z,32.30
2023-03-20T01:18:51.575Z,31.35
2023-03-20T01:21:20.098Z,32.30
2023-03-20T01:23:47.951Z,27.90
2023-03-20T01:26:22.597Z,29.08
2023-03-20T01:28:50.646Z,30.52
2023-03-20T01:31:18.286Z,31.55
2023-03-20T01:33:45.622Z,31.38
2023-03-20T01:36:15.258Z,32.58
2023-03-20T01:38:42.235Z,31.50
2023-03-20T01:41:08.672Z,31.67
2023-03-20T01:43:36.028Z,31.27
2023-03-20T01:46:11.883Z,31.02
2023-03-20T01:48:50.190Z,31.10
2023-03-20T01:51:25.973Z,28.83
2023-03-20T01:54:12.896Z,30.10
2023-03-20T01:56:46.710Z,33.22
2023-03-20T01:59:28.855Z,32.67
2023-03-20T02:01:56.337Z,32.70
2023-03-20T02:04:29.001Z,36.13
2023-03-20T02:06:56.086Z,33.03
2023-03-20T02:09:22.622Z,35.75
2023-03-20T02:11:49.266Z,33.22
2023-03-20T02:14:15.963Z,31.25
2023-03-20T02:16:42.392Z,31.83
2023-03-20T02:19:21.667Z,32.72
2023-03-20T02:22:25.528Z,32.63
2023-03-20T02:25:15.769Z,32.25
2023-03-20T02:28:20.193Z,33.50
2023-03-20T02:31:14.508Z,33.83
2023-03-20T02:33:51.447Z,33.10
2023-03-20T02:36:54.855Z,33.97
2023-03-20T02:39:58.208Z,32.75
2023-03-20T02:42:44.781Z,32.42
2023-03-20T02:45:18.809Z,32.22
2023-03-20T02:48:08.378Z,30.98
2023-03-20T02:50:53.855Z,30.63
2023-03-20T02:53:41.877Z,33.55
2023-03-20T02:56:22.120Z,33.50
2023-03-20T02:59:03.936Z,34.20
2023-03-20T03:01:36.003Z,30.80
2023-03-20T03:04:08.794Z,31.10
2023-03-20T03:06:42.394Z,32.00
2023-03-20T03:09:22.055Z,33.13
2023-03-20T03:11:53.446Z,31.77
2023-03-20T03:16:54.344Z,31.23
2023-03-20T03:19:24.956Z,29.83
2023-03-20T03:21:51.967Z,35.65
2023-03-20T03:24:40.941Z,33.22
2023-03-20T03:27:18.117Z,32.75
2023-03-20T03:29:49.463Z,30.85
2023-03-20T03:32:25.373Z,30.00
2023-03-20T03:34:52.056Z,26.20
2023-03-20T03:37:41.354Z,28.27
2023-03-20T03:40:08.865Z,29.58
2023-03-20T03:42:39.866Z,27.85
2023-03-20T03:45:13.875Z,30.88
2023-03-20T03:47:52.532Z,27.50
2023-03-20T03:50:27.368Z,28.98
2023-03-20T03:52:59.610Z,29.15
2023-03-20T03:55:35.110Z,29.77
2023-03-20T03:58:08.753Z,31.58
2023-03-20T04:00:35.966Z,28.98
2023-03-20T04:03:06.138Z,28.27
2023-03-20T04:05:36.790Z,29.45
2023-03-20T04:08:05.680Z,28.15
2023-03-20T04:10:32.084Z,30.95
2023-03-20T04:12:58.605Z,31.33
2023-03-20T04:15:27.526Z,30.38
2023-03-20T04:17:54.326Z,28.00
2023-03-20T04:20:20.813Z,29.73
2023-03-20T04:22:47.422Z,30.10
2023-03-20T04:25:20.460Z,33.45
2023-03-20T04:27:47.296Z,31.55
2023-03-20T04:30:13.826Z,30.02
2023-03-20T04:32:40.391Z,32.17
2023-03-20T04:35:07.412Z,30.85
2023-03-20T04:37:34.062Z,33.47
2023-03-20T04:40:00.654Z,33.97
2023-03-20T04:42:27.149Z,30.55
2023-03-20T04:44:53.653Z,33.17
2023-03-20T04:47:20.384Z,32.42
2023-03-20T04:49:46.815Z,30.88
2023-03-20T04:52:13.389Z,34.95
2023-03-20T04:54:39.793Z,37.42
2023-03-20T04:57:06.392Z,35.38
2023-03-20T04:59:32.803Z,34.95
2023-03-20T05:01:59.261Z,32.92
2023-03-20T05:04:26.283Z,32.45
2023-03-20T05:06:53.424Z,33.25
2023-03-20T05:09:20.033Z,34.55
2023-03-20T05:11:46.516Z,32.80
2023-03-20T05:14:13.400Z,33.33
2023-03-20T05:16:40.579Z,33.10
2023-03-20T05:19:07.282Z,33.72
2023-03-20T05:21:33.717Z,28.77
2023-03-20T05:24:00.416Z,29.00
2023-03-20T05:26:27.218Z,28.13
2023-03-20T05:28:53.970Z,28.00
2023-03-20T05:31:20.691Z,27.85
2023-03-20T05:33:47.869Z,29.50
2023-03-20T05:36:14.604Z,30.73
2023-03-20T05:38:41.530Z,30.33
2023-03-20T05:41:08.204Z,28.58
2023-03-20T05:43:35.335Z,31.77
2023-03-20T05:46:02.174Z,31.88
2023-03-20T05:48:28.778Z,28.90
2023-03-20T05:50:55.291Z,28.17
2023-03-20T05:53:21.903Z,29.83
2023-03-20T05:55:49.038Z,33.40
2023-03-20T05:58:15.542Z,36.50
2023-03-20T06:00:41.994Z,35.50
2023-03-20T06:03:08.795Z,38.15
2023-03-20T06:05:36.599Z,41.20
2023-03-20T06:08:03.746Z,44.40
2023-03-20T06:10:30.357Z,46.15
2023-03-20T06:12:58.570Z,49.72
2023-03-20T06:15:25.348Z,46.47
2023-03-20T06:17:51.815Z,51.63
2023-03-20T06:20:18.502Z,53.08
2023-03-20T06:22:46.229Z,60.22
2023-03-20T06:25:13.120Z,61.13
2023-03-20T06:27:39.789Z,56.38
2023-03-20T06:30:07.857Z,53.28
2023-03-20T06:32:34.752Z,56.88
2023-03-20T06:35:01.650Z,56.53
2023-03-20T06:37:28.584Z,65.10
2023-03-20T06:39:55.934Z,62.83
2023-03-20T06:42:22.455Z,65.60
2023-03-20T06:44:49.431Z,60.90
2023-03-20T06:47:16.372Z,62.20
2023-03-20T06:49:45.895Z,60.70
2023-03-20T06:52:17.938Z,60.38
2023-03-20T06:54:46.061Z,63.58
2023-03-20T06:57:15.297Z,58.55
2023-03-20T06:59:42.110Z,65.00
2023-03-20T07:02:10.772Z,60.90
2023-03-20T07:04:37.864Z,65.78
2023-03-20T07:07:04.716Z,64.40
2023-03-20T07:09:31.190Z,56.63
2023-03-20T07:11:57.717Z,54.60
2023-03-20T07:14:24.147Z,55.72
2023-03-20T07:16:51.085Z,53.25
2023-03-20T07:19:18.835Z,55.35
2023-03-20T07:21:45.659Z,64.40
2023-03-20T07:24:12.740Z,56.15
2023-03-20T07:26:41.114Z,57.72
2023-03-20T07:29:07.909Z,53.17
2023-03-20T07:31:34.562Z,51.67
2023-03-20T07:34:01.267Z,50.92
2023-03-20T07:36:27.949Z,54.70
2023-03-20T07:38:54.418Z,53.17
2023-03-20T07:41:21.258Z,55.30
2023-03-20T07:43:47.863Z,58.60
2023-03-20T07:46:14.481Z,57.67
2023-03-20T07:48:41.147Z,57.60
2023-03-20T07:51:08.193Z,57.95
2023-03-20T07:53:34.914Z,54.25
2023-03-20T07:56:01.507Z,53.70
2023-03-20T07:58:28.210Z,54.13
2023-03-20T08:00:57.785Z,56.10
2023-03-20T08:03:24.935Z,51.65
2023-03-20T08:05:51.562Z,50.08
2023-03-20T08:08:18.255Z,49.13
2023-03-20T08:10:44.807Z,48.35
2023-03-20T08:13:11.392Z,44.67
2023-03-20T08:15:38.375Z,46.53
2023-03-20T08:18:05.178Z,49.95
2023-03-20T08:20:31.831Z,45.85
2023-03-20T08:22:58.320Z,48.25
2023-03-20T08:25:24.789Z,44.67
2023-03-20T08:27:51.263Z,42.95
2023-03-20T08:30:17.803Z,46.22
2023-03-20T08:32:44.374Z,42.45
2023-03-20T08:35:25.762Z,41.08
2023-03-20T08:37:56.644Z,42.42
2023-03-20T08:40:23.683Z,43.83
2023-03-20T08:42:50.315Z,44.22
2023-03-20T08:45:18.383Z,44.90
2023-03-20T08:47:48.865Z,40.35
2023-03-20T08:50:16.228Z,44.05
2023-03-20T08:52:44.194Z,43.22
2023-03-20T08:55:12.101Z,41.00
2023-03-20T08:57:39.040Z,39.47
2023-03-20T09:00:07.460Z,37.88
2023-03-20T09:02:34.750Z,40.25
2023-03-20T09:05:01.487Z,38.13
2023-03-20T09:07:28.245Z,39.10
2023-03-20T09:09:54.763Z,40.38
2023-03-20T09:12:21.730Z,36.85
2023-03-20T09:14:48.273Z,37.03
2023-03-20T09:17:14.841Z,39.90
2023-03-20T09:19:44.366Z,34.72
2023-03-20T09:22:14.282Z,37.22
2023-03-20T09:24:41.117Z,38.65
2023-03-20T09:27:07.632Z,34.88
2023-03-20T09:29:34.126Z,37.70
2023-03-20T09:32:01.227Z,35.85
2023-03-20T09:34:27.708Z,37.47
2023-03-20T09:36:54.273Z,38.60
2023-03-20T09:39:20.861Z,35.95
2023-03-20T09:41:57.087Z,37.20
2023-03-20T09:44:39.006Z,31.77
2023-03-20T09:50:09.670Z,30.63
2023-03-20T09:52:58.110Z,30.30
2023-03-20T09:55:32.850Z,33.22
2023-03-20T09:58:06.050Z,34.00
2023-03-20T10:00:36.192Z,31.73
2023-03-20T10:03:08.217Z,30.88
2023-03-20T10:05:45.602Z,31.67
2023-03-20T10:08:17.982Z,31.25
2023-03-20T10:11:06.621Z,29.25
2023-03-20T10:13:55.993Z,30.23
2023-03-20T10:16:47.881Z,28.20
2023-03-20T10:19:36.623Z,30.60
2023-03-20T10:22:29.159Z,29.13
2023-03-20T10:25:16.823Z,27.73
2023-03-20T10:27:49.429Z,30.73
2023-03-20T10:30:27.054Z,28.75
2023-03-20T10:32:56.653Z,27.45
2023-03-20T10:35:33.734Z,28.33
2023-03-20T10:38:18.275Z,27.27
2023-03-20T10:40:45.264Z,28.17
2023-03-20T10:43:19.750Z,30.08
2023-03-20T10:45:48.393Z,30.25
2023-03-20T10:48:23.626Z,30.48
2023-03-20T10:50:59.786Z,28.75
2023-03-20T10:53:41.905Z,24.25
2023-03-20T10:56:17.122Z,27.90
2023-03-20T10:58:48.085Z,25.67
2023-03-20T11:01:15.061Z,27.25
2023-03-20T11:03:41.643Z,26.20
2023-03-20T11:06:23.243Z,27.67
2023-03-20T11:08:52.532Z,24.40
2023-03-20T11:11:28.216Z,23.55
2023-03-20T11:13:55.524Z,23.00
2023-03-20T11:16:31.702Z,26.23
2023-03-20T11:19:06.313Z,22.88
2023-03-20T11:21:33.698Z,23.05
2023-03-20T11:24:01.643Z,23.70
2023-03-20T11:26:34.380Z,24.50
2023-03-20T11:29:01.064Z,25.25
2023-03-20T11:31:41.164Z,26.27
2023-03-20T11:34:07.565Z,24.05
2023-03-20T11:36:36.771Z,25.55
2023-03-20T11:39:15.463Z,22.63
2023-03-20T11:41:54.019Z,22.52
2023-03-20T11:44:33.038Z,25.30
2023-03-20T11:47:20.965Z,23.77
2023-03-20T11:50:00.293Z,25.65
2023-03-20T11:52:32.708Z,26.13
2023-03-20T11:55:03.459Z,24.63
2023-03-20T11:57:35.246Z,23.80
2023-03-20T12:00:24.336Z,28.55
2023-03-20T12:02:51.387Z,25.60
2023-03-20T12:05:37.303Z,26.02
2023-03-20T12:08:24.330Z,26.58
2023-03-20T12:10:59.400Z,26.45
2023-03-20T12:13:33.726Z,25.70
2023-03-20T12:16:07.970Z,24.67
2023-03-20T12:18:50.534Z,27.65
2023-03-20T12:21:27.025Z,26.73
2023-03-20T12:24:01.319Z,25.33
2023-03-20T12:26:36.180Z,26.50
2023-03-20T12:29:12.653Z,27.40
2023-03-20T12:32:02.466Z,25.30
2023-03-20T12:34:52.970Z,27.80
2023-03-20T12:37:19.906Z,25.87
2023-03-20T12:39:59.359Z,28.33
2023-03-20T12:42:42.912Z,34.15
2023-03-20T12:45:12.592Z,28.80
2023-03-20T12:48:04.633Z,30.92
2023-03-20T12:50:39.556Z,28.05
2023-03-20T12:53:20.416Z,29.52
2023-03-20T12:55:54.640Z,26.67
2023-03-20T12:58:24.115Z,28.90
2023-03-20T13:01:02.797Z,27.02
2023-03-20T13:03:38.304Z,30.23
2023-03-20T13:06:10.911Z,27.65
2023-03-20T13:09:00.627Z,27.23
2023-03-20T13:11:33.219Z,27.52
2023-03-20T13:14:11.385Z,27.60
2023-03-20T13:17:11.644Z,24.48
2023-03-20T13:19:55.020Z,28.05
2023-03-20T13:22:36.375Z,26.50
2023-03-20T13:27:43.500Z,25.60
2023-03-20T13:30:16.657Z,25.98
2023-03-20T13:32:59.775Z,25.90
2023-03-20T13:35:42.105Z,27.08
2023-03-20T13:38:22.230Z,30.17
2023-03-20T13:40:56.319Z,25.73
2023-03-20T13:43:35.269Z,26.33
2023-03-20T13:46:07.168Z,25.65
2023-03-20T13:48:42.581Z,25.38
2023-03-20T13:51:34.514Z,25.58
2023-03-20T13:54:16.367Z,26.05
2023-03-20T13:56:53.556Z,23.35
2023-03-20T13:59:58.548Z,25.33
2023-03-20T14:02:33.645Z,26.20
2023-03-20T14:05:11.397Z,25.20
2023-03-20T14:07:42.593Z,25.67
2023-03-20T14:13:20.771Z,24.38
2023-03-20T14:15:56.491Z,23.13
2023-03-20T14:18:28.527Z,24.33
2023-03-20T14:21:03.279Z,25.20
2023-03-20T14:23:35.088Z,25.92
2023-03-20T14:26:06.911Z,24.48
2023-03-20T14:28:44.619Z,25.90
2023-03-20T14:31:20.838Z,25.15
2023-03-20T14:33:58.751Z,26.38
2023-03-20T14:36:45.252Z,26.30
2023-03-20T14:39:27.045Z,26.35
2023-03-20T14:42:16.138Z,25.67
2023-03-20T14:44:48.542Z,24.60
2023-03-20T14:47:27.696Z,26.38
2023-03-20T14:50:03.505Z,26.27
2023-03-20T14:52:35.291Z,25.58
2023-03-20T14:55:20.010Z,26.05
2023-03-20T14:57:55.973Z,23.67
2023-03-20T15:00:26.557Z,26.20
2023-03-20T15:03:08.251Z,27.30
2023-03-20T15:05:37.994Z,25.33
2023-03-20T15:08:10.576Z,25.60
2023-03-20T15:10:47.068Z,25.92
2023-03-20T15:13:15.473Z,26.65
2023-03-20T15:15:54.045Z,24.70
2023-03-20T15:18:23.464Z,26.15
2023-03-20T15:20:50.425Z,25.67
2023-03-20T15:23:17.368Z,23.50
2023-03-20T15:25:49.611Z,26.58
2023-03-20T15:28:25.965Z,25.48
2023-03-20T15:30:57.945Z,24.42
2023-03-20T15:33:33.245Z,23.75
2023-03-20T15:36:19.005Z,25.55
2023-03-20T15:38:47.433Z,22.65
2023-03-20T15:41:34.204Z,26.60
2023-03-20T15:44:18.097Z,26.00
2023-03-20T15:47:00.755Z,23.10
2023-03-20T15:49:30.844Z,24.75
2023-03-20T15:52:01.709Z,24.67
2023-03-20T15:54:29.122Z,25.45
2023-03-20T15:56:58.363Z,23.05
2023-03-20T15:59:29.454Z,23.15
2023-03-20T16:04:26.541Z,27.85
2023-03-20T16:07:01.079Z,25.25
2023-03-20T16:09:28.882Z,24.95
2023-03-20T16:11:57.046Z,26.67
2023-03-20T16:14:26.434Z,26.30
2023-03-20T16:16:56.175Z,26.48
2023-03-20T16:19:25.027Z,29.05
2023-03-20T16:21:55.916Z,34.25
2023-03-20T16:24:28.960Z,27.77
2023-03-20T16:26:56.766Z,27.75
2023-03-20T16:29:25.528Z,26.67
2023-03-20T16:32:26.864Z,25.10
2023-03-20T16:34:57.303Z,23.52
2023-03-20T16:37:37.004Z,25.40
2023-03-20T16:40:19.937Z,25.17
2023-03-20T16:42:46.777Z,26.33
2023-03-20T16:45:21.799Z,27.13
2023-03-20T16:47:49.488Z,27.17
2023-03-20T16:50:17.939Z,25.70
2023-03-20T16:52:51.092Z,27.58
2023-03-20T16:55:22.780Z,27.27
2023-03-20T16:57:52.122Z,25.38
2023-03-20T17:00:25.933Z,27.15
2023-03-20T17:03:00.858Z,26.58
2023-03-20T17:05:42.484Z,25.80
2023-03-20T17:08:13.850Z,26.75
2023-03-20T17:10:44.026Z,30.80
2023-03-20T17:13:10.642Z,27.15
2023-03-20T17:15:37.243Z,27.05
2023-03-20T17:18:04.389Z,27.02
2023-03-20T17:20:31.966Z,28.27
2023-03-20T17:22:58.485Z,28.58
2023-03-20T17:25:25.054Z,28.30
2023-03-20T17:27:51.742Z,30.60
2023-03-20T17:30:23.835Z,28.55
2023-03-20T17:32:51.031Z,29.20
2023-03-20T17:35:17.834Z,30.10
2023-03-20T17:37:44.843Z,30.08
2023-03-20T17:40:17.965Z,30.55
2023-03-20T17:42:44.614Z,29.10
2023-03-20T17:45:14.181Z,30.40
2023-03-20T17:47:42.446Z,31.30
2023-03-20T17:50:27.421Z,28.67
2023-03-20T17:52:54.947Z,29.98
2023-03-20T17:55:21.710Z,28.85
2023-03-20T17:57:49.293Z,31.65
2023-03-20T18:00:22.065Z,30.27
2023-03-20T18:02:48.609Z,29.08
2023-03-20T18:05:15.399Z,29.48
2023-03-20T18:07:41.864Z,30.38
2023-03-20T18:10:20.824Z,28.55
2023-03-20T18:12:47.378Z,31.48
2023-03-20T18:15:13.836Z,29.40
2023-03-20T18:17:40.267Z,29.15
2023-03-20T18:20:22.808Z,30.30
2023-03-20T18:22:49.851Z,27.85
2023-03-20T18:25:16.473Z,31.70
2023-03-20T18:27:43.974Z,33.85
2023-03-20T18:30:16.508Z,30.67
2023-03-20T18:32:42.951Z,30.65
2023-03-20T18:35:09.622Z,30.08
2023-03-20T18:37:36.396Z,30.52
2023-03-20T18:40:03.476Z,28.27
2023-03-20T18:42:29.887Z,32.38
2023-03-20T18:44:56.484Z,35.00
2023-03-20T18:47:23.988Z,44.03
2023-03-20T18:49:50.546Z,45.13
2023-03-20T18:52:16.920Z,55.88
2023-03-20T18:54:43.380Z,47.22
2023-03-20T18:57:13.543Z,145.43
2023-03-20T18:59:40.167Z,163.05
2023-03-20T19:02:07.044Z,135.50
2023-03-20T19:04:35.142Z,98.30
2023-03-20T19:07:01.806Z,66.68
2023-03-20T19:09:28.259Z,49.58
2023-03-20T19:11:54.725Z,52.10
2023-03-20T19:14:21.266Z,49.05
2023-03-20T19:16:47.729Z,35.63
2023-03-20T19:19:15.859Z,37.65
2023-03-20T19:21:42.405Z,44.58
2023-03-20T19:24:08.934Z,46.38
2023-03-20T19:26:37.023Z,46.10
2023-03-20T19:29:08.717Z,50.20
2023-03-20T19:31:35.855Z,46.40
2023-03-20T19:34:02.336Z,47.25
2023-03-20T19:36:34.495Z,42.80
2023-03-20T19:39:03.860Z,47.53
2023-03-20T19:41:32.176Z,52.55
2023-03-20T19:43:59.237Z,44.22
2023-03-20T19:46:42.758Z,38.50
2023-03-20T19:49:20.631Z,38.75
2023-03-20T19:51:48.436Z,35.30
2023-03-20T19:54:15.119Z,39.63
2023-03-20T19:56:41.608Z,37.45
2023-03-20T19:59:08.425Z,38.38
2023-03-20T20:01:36.157Z,39.25
2023-03-20T20:04:02.676Z,38.38
2023-03-20T20:06:32.195Z,36.75
2023-03-20T20:09:00.926Z,34.20
2023-03-20T20:11:27.567Z,37.08
2023-03-20T20:14:10.537Z,43.40
2023-03-20T20:16:40.264Z,43.63
2023-03-20T20:19:07.307Z,37.33
2023-03-20T20:24:20.950Z,37.35
2023-03-20T20:26:55.307Z,33.53
2023-03-20T20:29:29.837Z,33.40
2023-03-20T20:31:56.450Z,36.80
2023-03-20T20:37:51.637Z,35.95
2023-03-20T20:39:57.435Z,33.47
2023-03-20T20:42:23.951Z,40.47
2023-03-20T20:44:50.679Z,43.67
2023-03-20T20:47:17.490Z,37.80
2023-03-20T20:49:46.306Z,36.72
2023-03-20T20:52:13.114Z,35.83
2023-03-20T20:54:42.009Z,38.22
2023-03-20T20:57:14.221Z,39.78
2023-03-20T20:59:41.087Z,35.45
2023-03-20T21:02:12.844Z,34.70
2023-03-20T21:04:40.949Z,36.75
2023-03-20T21:07:11.549Z,35.13
2023-03-20T21:09:38.943Z,40.58
2023-03-20T21:12:05.704Z,33.22
2023-03-20T21:14:32.209Z,44.53
2023-03-20T21:17:01.730Z,43.90
2023-03-20T21:19:30.807Z,40.15
2023-03-20T21:21:57.377Z,41.42
2023-03-20T21:24:34.005Z,39.13
2023-03-20T21:27:03.540Z,39.97
2023-03-20T21:29:30.176Z,41.55
2023-03-20T21:31:56.702Z,38.25
2023-03-20T21:34:23.327Z,41.05
2023-03-20T21:36:51.017Z,35.83
2023-03-20T21:39:18.578Z,39.83
2023-03-20T21:41:45.978Z,42.97
2023-03-20T21:44:17.634Z,44.88
2023-03-20T21:47:33.206Z,41.58
2023-03-20T21:56:00.012Z,40.55
2023-03-20T21:58:44.477Z,40.58
2023-03-20T22:01:29.085Z,39.15
2023-03-20T22:04:10.567Z,41.65
2023-03-20T22:10:00.310Z,40.85
2023-03-20T22:23:45.678Z,38.97
2023-03-20T22:29:14.719Z,42.13
2023-03-20T22:31:55.267Z,39.33
2023-03-20T22:40:22.630Z,36.60
2023-03-20T22:42:52.975Z,38.20
2023-03-20T22:45:13.644Z,41.92
2023-03-20T22:47:40.635Z,42.00
2023-03-20T22:50:07.798Z,45.38
2023-03-20T22:52:48.087Z,39.47
2023-03-20T22:55:16.513Z,39.47
2023-03-20T22:57:52.796Z,35.20
2023-03-20T23:00:22.790Z,35.17
2023-03-20T23:02:50.009Z,36.45
2023-03-20T23:05:16.814Z,38.97
2023-03-20T23:07:44.451Z,37.67
2023-03-20T23:10:13.186Z,38.78
2023-03-20T23:12:40.907Z,37.38
2023-03-20T23:15:09.030Z,38.42
2023-03-20T23:17:35.617Z,37.33
2023-03-20T23:20:11.280Z,38.35
2023-03-20T23:22:38.713Z,39.58
2023-03-20T23:25:18.292Z,40.15
2023-03-20T23:27:50.369Z,37.50
2023-03-20T23:30:17.529Z,35.75
2023-03-20T23:32:44.044Z,36.83
2023-03-20T23:35:10.759Z,36.55
2023-03-20T23:37:37.320Z,36.78
2023-03-20T23:40:04.519Z,35.25
2023-03-20T23:42:31.317Z,36.33
2023-03-20T23:45:04.495Z,36.28
2023-03-20T23:47:44.862Z,37.83
2023-03-20T23:50:20.674Z,36.45
2023-03-20T23:53:01.122Z,36.40
2023-03-20T23:55:35.504Z,35.90
2023-03-20T23:58:02.232Z,35.30
